sensor_id;sensor_type;location;lat;lon;timestamp;P1;durP1;ratioP1;P2;durP2;ratioP2
22005;SDS011;11167;46.988;15.470;2022-11-06T00:00:14;5.87;;;4.30;;
22005;SDS011;11167;46.988;15.470;2022-11-06T00:02:17;8.35;;;4.53;;
22005;SDS011;11167;46.988;15.470;2022-11-06T00:04:18;5.87;;;4.45;;
22005;SDS011;11167;46.988;15.470;2022-11-06T00:06:19;7.58;;;4.50;;
22005;SDS011;11167;46.988;15.470;2022-11-06T00:08:39;6.20;;;4.35;;
22005;SDS011;11167;46.988;15.470;2022-11-06T00:10:40;8.33;;;4.10;;
22005;SDS011;11167;46.988;15.470;2022-11-06T00:12:42;6.95;;;4.22;;
22005;SDS011;11167;46.988;15.470;2022-11-06T00:14:43;5.53;;;4.00;;
22005;SDS011;11167;46.988;15.470;2022-11-06T00:16:45;6.10;;;4.12;;
22005;SDS011;11167;46.988;15.470;2022-11-06T00:18:47;7.12;;;4.30;;
22005;SDS011;11167;46.988;15.470;2022-11-06T00:20:48;5.37;;;3.98;;
22005;SDS011;11167;46.988;15.470;2022-11-06T00:22:49;5.40;;;3.90;;
22005;SDS011;11167;46.988;15.470;2022-11-06T00:24:51;4.72;;;3.70;;
22005;SDS011;11167;46.988;15.470;2022-11-06T00:26:52;5.58;;;3.83;;
22005;SDS011;11167;46.988;15.470;2022-11-06T00:28:53;7.45;;;4.25;;
22005;SDS011;11167;46.988;15.470;2022-11-06T00:31:02;4.75;;;3.42;;
22005;SDS011;11167;46.988;15.470;2022-11-06T00:33:04;5.10;;;3.83;;
22005;SDS011;11167;46.988;15.470;2022-11-06T00:35:05;6.20;;;3.77;;
22005;SDS011;11167;46.988;15.470;2022-11-06T00:37:07;6.08;;;3.45;;
22005;SDS011;11167;46.988;15.470;2022-11-06T00:39:08;5.50;;;3.30;;
22005;SDS011;11167;46.988;15.470;2022-11-06T00:41:11;6.05;;;3.67;;
22005;SDS011;11167;46.988;15.470;2022-11-06T00:43:14;4.67;;;3.70;;
22005;SDS011;11167;46.988;15.470;2022-11-06T00:45:15;5.42;;;3.60;;
22005;SDS011;11167;46.988;15.470;2022-11-06T00:47:17;4.65;;;3.25;;
22005;SDS011;11167;46.988;15.470;2022-11-06T00:49:18;5.00;;;3.60;;
22005;SDS011;11167;46.988;15.470;2022-11-06T00:51:20;4.95;;;3.45;;
22005;SDS011;11167;46.988;15.470;2022-11-06T00:53:24;4.58;;;3.33;;
22005;SDS011;11167;46.988;15.470;2022-11-06T00:55:25;5.50;;;3.17;;
22005;SDS011;11167;46.988;15.470;2022-11-06T00:57:26;4.08;;;3.12;;
22005;SDS011;11167;46.988;15.470;2022-11-06T00:59:27;4.95;;;3.17;;
22005;SDS011;11167;46.988;15.470;2022-11-06T01:01:29;6.28;;;3.52;;
22005;SDS011;11167;46.988;15.470;2022-11-06T01:03:32;4.58;;;3.08;;
22005;SDS011;11167;46.988;15.470;2022-11-06T01:05:33;5.30;;;3.10;;
22005;SDS011;11167;46.988;15.470;2022-11-06T01:07:35;3.98;;;3.12;;
22005;SDS011;11167;46.988;15.470;2022-11-06T01:09:36;4.25;;;2.87;;
22005;SDS011;11167;46.988;15.470;2022-11-06T01:11:39;4.05;;;2.98;;
22005;SDS011;11167;46.988;15.470;2022-11-06T01:13:42;6.17;;;2.95;;
22005;SDS011;11167;46.988;15.470;2022-11-06T01:15:44;3.98;;;2.95;;
22005;SDS011;11167;46.988;15.470;2022-11-06T01:17:45;4.35;;;2.90;;
22005;SDS011;11167;46.988;15.470;2022-11-06T01:19:46;4.45;;;2.90;;
22005;SDS011;11167;46.988;15.470;2022-11-06T01:21:49;3.15;;;2.67;;
22005;SDS011;11167;46.988;15.470;2022-11-06T01:23:53;3.75;;;2.67;;
22005;SDS011;11167;46.988;15.470;2022-11-06T01:26:00;4.70;;;3.27;;
22005;SDS011;11167;46.988;15.470;2022-11-06T01:28:03;3.20;;;2.50;;
22005;SDS011;11167;46.988;15.470;2022-11-06T01:30:04;3.60;;;2.85;;
22005;SDS011;11167;46.988;15.470;2022-11-06T01:32:07;3.37;;;2.83;;
22005;SDS011;11167;46.988;15.470;2022-11-06T01:34:09;4.78;;;3.22;;
22005;SDS011;11167;46.988;15.470;2022-11-06T01:36:12;3.47;;;2.90;;
22005;SDS011;11167;46.988;15.470;2022-11-06T01:38:14;3.67;;;2.72;;
22005;SDS011;11167;46.988;15.470;2022-11-06T01:40:16;4.08;;;2.92;;
22005;SDS011;11167;46.988;15.470;2022-11-06T01:42:18;3.52;;;2.67;;
22005;SDS011;11167;46.988;15.470;2022-11-06T01:46:42;3.40;;;2.67;;
22005;SDS011;11167;46.988;15.470;2022-11-06T01:48:48;3.50;;;2.40;;
22005;SDS011;11167;46.988;15.470;2022-11-06T01:50:53;4.47;;;2.85;;
22005;SDS011;11167;46.988;15.470;2022-11-06T01:52:56;4.30;;;3.08;;
22005;SDS011;11167;46.988;15.470;2022-11-06T01:55:11;4.17;;;2.75;;
22005;SDS011;11167;46.988;15.470;2022-11-06T01:57:14;4.58;;;3.08;;
22005;SDS011;11167;46.988;15.470;2022-11-06T01:59:16;3.70;;;3.15;;
22005;SDS011;11167;46.988;15.470;2022-11-06T02:01:19;3.90;;;2.72;;
22005;SDS011;11167;46.988;15.470;2022-11-06T02:03:20;3.47;;;2.58;;
22005;SDS011;11167;46.988;15.470;2022-11-06T02:05:22;3.27;;;2.80;;
22005;SDS011;11167;46.988;15.470;2022-11-06T02:07:23;4.05;;;2.67;;
22005;SDS011;11167;46.988;15.470;2022-11-06T02:09:24;3.12;;;2.70;;
22005;SDS011;11167;46.988;15.470;2022-11-06T02:11:26;3.47;;;2.80;;
22005;SDS011;11167;46.988;15.470;2022-11-06T02:13:40;3.90;;;3.30;;
22005;SDS011;11167;46.988;15.470;2022-11-06T02:15:46;3.77;;;2.70;;
22005;SDS011;11167;46.988;15.470;2022-11-06T02:27:14;3.50;;;2.60;;
22005;SDS011;11167;46.988;15.470;2022-11-06T02:29:23;3.70;;;2.52;;
22005;SDS011;11167;46.988;15.470;2022-11-06T02:31:27;3.42;;;2.70;;
22005;SDS011;11167;46.988;15.470;2022-11-06T02:33:35;2.42;;;2.15;;
22005;SDS011;11167;46.988;15.470;2022-11-06T02:35:44;3.50;;;2.70;;
22005;SDS011;11167;46.988;15.470;2022-11-06T02:37:47;3.35;;;2.90;;
22005;SDS011;11167;46.988;15.470;2022-11-06T02:39:53;4.22;;;2.85;;
22005;SDS011;11167;46.988;15.470;2022-11-06T02:41:57;3.27;;;2.55;;
22005;SDS011;11167;46.988;15.470;2022-11-06T02:44:00;2.95;;;2.30;;
22005;SDS011;11167;46.988;15.470;2022-11-06T02:46:09;3.02;;;2.50;;
22005;SDS011;11167;46.988;15.470;2022-11-06T02:48:13;3.02;;;2.55;;
22005;SDS011;11167;46.988;15.470;2022-11-06T02:50:19;4.78;;;2.92;;
22005;SDS011;11167;46.988;15.470;2022-11-06T02:54:33;3.25;;;2.65;;
22005;SDS011;11167;46.988;15.470;2022-11-06T02:56:38;3.15;;;2.67;;
22005;SDS011;11167;46.988;15.470;2022-11-06T02:58:49;3.85;;;2.87;;
22005;SDS011;11167;46.988;15.470;2022-11-06T03:01:02;3.65;;;2.47;;
22005;SDS011;11167;46.988;15.470;2022-11-06T03:03:05;3.25;;;2.40;;
22005;SDS011;11167;46.988;15.470;2022-11-06T03:05:18;4.70;;;2.90;;
22005;SDS011;11167;46.988;15.470;2022-11-06T03:09:31;2.90;;;2.60;;
22005;SDS011;11167;46.988;15.470;2022-11-06T03:11:33;2.77;;;2.30;;
22005;SDS011;11167;46.988;15.470;2022-11-06T03:13:43;3.98;;;2.98;;
22005;SDS011;11167;46.988;15.470;2022-11-06T03:18:13;2.33;;;2.02;;
22005;SDS011;11167;46.988;15.470;2022-11-06T03:22:30;3.87;;;2.92;;
22005;SDS011;11167;46.988;15.470;2022-11-06T03:26:53;4.22;;;3.30;;
22005;SDS011;11167;46.988;15.470;2022-11-06T03:31:35;4.35;;;3.22;;
22005;SDS011;11167;46.988;15.470;2022-11-06T03:33:33;4.95;;;3.22;;
22005;SDS011;11167;46.988;15.470;2022-11-06T03:35:46;3.52;;;2.77;;
22005;SDS011;11167;46.988;15.470;2022-11-06T03:40:01;4.08;;;2.80;;
22005;SDS011;11167;46.988;15.470;2022-11-06T03:42:14;3.37;;;2.70;;
22005;SDS011;11167;46.988;15.470;2022-11-06T03:44:19;3.55;;;2.80;;
22005;SDS011;11167;46.988;15.470;2022-11-06T03:46:23;4.50;;;2.50;;
22005;SDS011;11167;46.988;15.470;2022-11-06T03:48:49;4.00;;;2.57;;
22005;SDS011;11167;46.988;15.470;2022-11-06T03:50:53;3.12;;;2.50;;
22005;SDS011;11167;46.988;15.470;2022-11-06T03:53:25;3.87;;;2.62;;
22005;SDS011;11167;46.988;15.470;2022-11-06T03:55:45;4.45;;;2.70;;
22005;SDS011;11167;46.988;15.470;2022-11-06T04:00:00;3.50;;;2.50;;
22005;SDS011;11167;46.988;15.470;2022-11-06T04:02:04;4.15;;;2.60;;
22005;SDS011;11167;46.988;15.470;2022-11-06T04:04:52;3.12;;;2.20;;
22005;SDS011;11167;46.988;15.470;2022-11-06T04:06:20;2.90;;;2.12;;
22005;SDS011;11167;46.988;15.470;2022-11-06T04:08:22;2.22;;;2.02;;
22005;SDS011;11167;46.988;15.470;2022-11-06T04:10:46;3.75;;;2.52;;
22005;SDS011;11167;46.988;15.470;2022-11-06T04:13:08;3.27;;;2.40;;
22005;SDS011;11167;46.988;15.470;2022-11-06T04:15:29;3.15;;;2.58;;
22005;SDS011;11167;46.988;15.470;2022-11-06T04:17:32;3.30;;;2.40;;
22005;SDS011;11167;46.988;15.470;2022-11-06T04:19:34;3.75;;;2.42;;
22005;SDS011;11167;46.988;15.470;2022-11-06T04:21:52;2.58;;;2.25;;
22005;SDS011;11167;46.988;15.470;2022-11-06T04:24:05;3.00;;;2.55;;
22005;SDS011;11167;46.988;15.470;2022-11-06T04:26:38;4.05;;;2.42;;
22005;SDS011;11167;46.988;15.470;2022-11-06T04:35:57;4.17;;;2.70;;
22005;SDS011;11167;46.988;15.470;2022-11-06T04:38:22;3.83;;;2.60;;
22005;SDS011;11167;46.988;15.470;2022-11-06T04:40:53;2.65;;;2.40;;
22005;SDS011;11167;46.988;15.470;2022-11-06T04:43:04;3.33;;;2.50;;
22005;SDS011;11167;46.988;15.470;2022-11-06T04:45:05;3.40;;;2.55;;
22005;SDS011;11167;46.988;15.470;2022-11-06T04:47:18;3.08;;;2.47;;
22005;SDS011;11167;46.988;15.470;2022-11-06T04:49:21;3.10;;;2.30;;
22005;SDS011;11167;46.988;15.470;2022-11-06T04:51:26;4.60;;;2.40;;
22005;SDS011;11167;46.988;15.470;2022-11-06T04:53:29;2.90;;;2.40;;
22005;SDS011;11167;46.988;15.470;2022-11-06T04:55:31;3.85;;;2.55;;
22005;SDS011;11167;46.988;15.470;2022-11-06T04:57:32;3.65;;;2.55;;
22005;SDS011;11167;46.988;15.470;2022-11-06T04:59:34;3.25;;;2.65;;
22005;SDS011;11167;46.988;15.470;2022-11-06T05:01:36;4.58;;;2.58;;
22005;SDS011;11167;46.988;15.470;2022-11-06T05:03:37;3.67;;;2.35;;
22005;SDS011;11167;46.988;15.470;2022-11-06T05:05:38;3.52;;;2.42;;
22005;SDS011;11167;46.988;15.470;2022-11-06T05:07:40;4.25;;;2.17;;
22005;SDS011;11167;46.988;15.470;2022-11-06T05:09:41;2.45;;;2.00;;
22005;SDS011;11167;46.988;15.470;2022-11-06T05:11:43;3.95;;;2.80;;
22005;SDS011;11167;46.988;15.470;2022-11-06T05:13:44;4.53;;;2.50;;
22005;SDS011;11167;46.988;15.470;2022-11-06T05:15:45;3.35;;;2.37;;
22005;SDS011;11167;46.988;15.470;2022-11-06T05:17:46;4.05;;;2.60;;
22005;SDS011;11167;46.988;15.470;2022-11-06T05:19:47;3.45;;;2.80;;
22005;SDS011;11167;46.988;15.470;2022-11-06T05:21:48;3.25;;;2.45;;
22005;SDS011;11167;46.988;15.470;2022-11-06T05:24:08;2.72;;;2.10;;
22005;SDS011;11167;46.988;15.470;2022-11-06T05:26:10;2.62;;;2.30;;
22005;SDS011;11167;46.988;15.470;2022-11-06T05:28:11;3.22;;;2.20;;
22005;SDS011;11167;46.988;15.470;2022-11-06T05:30:12;3.55;;;2.58;;
22005;SDS011;11167;46.988;15.470;2022-11-06T05:32:14;2.90;;;2.47;;
22005;SDS011;11167;46.988;15.470;2022-11-06T05:34:15;3.25;;;2.33;;
22005;SDS011;11167;46.988;15.470;2022-11-06T05:36:16;2.60;;;2.20;;
22005;SDS011;11167;46.988;15.470;2022-11-06T05:38:17;2.75;;;2.27;;
22005;SDS011;11167;46.988;15.470;2022-11-06T05:40:18;2.42;;;2.20;;
22005;SDS011;11167;46.988;15.470;2022-11-06T05:42:19;2.87;;;2.20;;
22005;SDS011;11167;46.988;15.470;2022-11-06T05:44:21;4.03;;;2.50;;
22005;SDS011;11167;46.988;15.470;2022-11-06T05:46:22;3.17;;;2.10;;
22005;SDS011;11167;46.988;15.470;2022-11-06T05:48:23;2.62;;;2.22;;
22005;SDS011;11167;46.988;15.470;2022-11-06T05:50:24;2.62;;;1.95;;
22005;SDS011;11167;46.988;15.470;2022-11-06T05:52:26;3.25;;;2.10;;
22005;SDS011;11167;46.988;15.470;2022-11-06T05:54:29;3.33;;;1.92;;
22005;SDS011;11167;46.988;15.470;2022-11-06T05:56:31;3.45;;;2.60;;
22005;SDS011;11167;46.988;15.470;2022-11-06T05:58:32;3.25;;;2.37;;
22005;SDS011;11167;46.988;15.470;2022-11-06T06:00:33;2.10;;;1.90;;
22005;SDS011;11167;46.988;15.470;2022-11-06T06:02:34;3.55;;;2.25;;
22005;SDS011;11167;46.988;15.470;2022-11-06T06:04:36;3.12;;;2.45;;
22005;SDS011;11167;46.988;15.470;2022-11-06T06:06:37;2.77;;;2.30;;
22005;SDS011;11167;46.988;15.470;2022-11-06T06:08:39;3.40;;;2.20;;
22005;SDS011;11167;46.988;15.470;2022-11-06T06:10:41;3.25;;;2.47;;
22005;SDS011;11167;46.988;15.470;2022-11-06T06:12:42;3.45;;;2.10;;
22005;SDS011;11167;46.988;15.470;2022-11-06T06:14:43;2.75;;;2.17;;
22005;SDS011;11167;46.988;15.470;2022-11-06T06:16:45;3.33;;;2.02;;
22005;SDS011;11167;46.988;15.470;2022-11-06T06:18:49;3.87;;;2.17;;
22005;SDS011;11167;46.988;15.470;2022-11-06T06:20:50;2.83;;;2.20;;
22005;SDS011;11167;46.988;15.470;2022-11-06T06:22:52;2.50;;;2.12;;
22005;SDS011;11167;46.988;15.470;2022-11-06T06:24:54;2.98;;;2.20;;
22005;SDS011;11167;46.988;15.470;2022-11-06T06:26:55;3.10;;;2.25;;
22005;SDS011;11167;46.988;15.470;2022-11-06T06:28:57;2.65;;;2.00;;
22005;SDS011;11167;46.988;15.470;2022-11-06T06:30:58;2.77;;;1.98;;
22005;SDS011;11167;46.988;15.470;2022-11-06T06:33:05;2.70;;;1.98;;
22005;SDS011;11167;46.988;15.470;2022-11-06T06:35:06;2.20;;;1.95;;
22005;SDS011;11167;46.988;15.470;2022-11-06T06:37:08;2.65;;;2.00;;
22005;SDS011;11167;46.988;15.470;2022-11-06T06:39:09;2.30;;;2.05;;
22005;SDS011;11167;46.988;15.470;2022-11-06T06:41:10;2.50;;;1.90;;
22005;SDS011;11167;46.988;15.470;2022-11-06T06:43:11;2.52;;;2.00;;
22005;SDS011;11167;46.988;15.470;2022-11-06T06:45:13;3.10;;;2.20;;
22005;SDS011;11167;46.988;15.470;2022-11-06T06:47:14;2.80;;;2.00;;
22005;SDS011;11167;46.988;15.470;2022-11-06T06:49:19;4.08;;;2.05;;
22005;SDS011;11167;46.988;15.470;2022-11-06T06:51:21;2.58;;;1.95;;
22005;SDS011;11167;46.988;15.470;2022-11-06T06:53:22;3.60;;;2.20;;
22005;SDS011;11167;46.988;15.470;2022-11-06T06:55:23;2.52;;;1.90;;
22005;SDS011;11167;46.988;15.470;2022-11-06T06:57:24;3.22;;;2.12;;
22005;SDS011;11167;46.988;15.470;2022-11-06T06:59:29;3.33;;;2.50;;
22005;SDS011;11167;46.988;15.470;2022-11-06T07:01:30;2.92;;;2.45;;
22005;SDS011;11167;46.988;15.470;2022-11-06T07:03:32;3.33;;;2.35;;
22005;SDS011;11167;46.988;15.470;2022-11-06T07:05:33;3.77;;;2.50;;
22005;SDS011;11167;46.988;15.470;2022-11-06T07:07:36;4.95;;;2.70;;
22005;SDS011;11167;46.988;15.470;2022-11-06T07:09:37;3.22;;;2.22;;
22005;SDS011;11167;46.988;15.470;2022-11-06T07:11:38;4.12;;;2.77;;
22005;SDS011;11167;46.988;15.470;2022-11-06T07:13:40;4.40;;;3.00;;
22005;SDS011;11167;46.988;15.470;2022-11-06T07:15:41;5.72;;;3.50;;
22005;SDS011;11167;46.988;15.470;2022-11-06T07:17:43;5.12;;;3.60;;
22005;SDS011;11167;46.988;15.470;2022-11-06T07:19:44;5.00;;;3.60;;
22005;SDS011;11167;46.988;15.470;2022-11-06T07:21:45;6.78;;;3.80;;
22005;SDS011;11167;46.988;15.470;2022-11-06T07:23:46;5.83;;;3.70;;
22005;SDS011;11167;46.988;15.470;2022-11-06T07:25:54;5.15;;;3.20;;
22005;SDS011;11167;46.988;15.470;2022-11-06T07:27:58;3.47;;;2.83;;
22005;SDS011;11167;46.988;15.470;2022-11-06T07:30:02;4.78;;;2.75;;
22005;SDS011;11167;46.988;15.470;2022-11-06T07:32:06;3.37;;;2.40;;
22005;SDS011;11167;46.988;15.470;2022-11-06T07:34:08;3.20;;;2.50;;
22005;SDS011;11167;46.988;15.470;2022-11-06T07:36:10;2.90;;;2.27;;
22005;SDS011;11167;46.988;15.470;2022-11-06T07:38:12;3.37;;;2.65;;
22005;SDS011;11167;46.988;15.470;2022-11-06T07:40:13;3.15;;;2.17;;
22005;SDS011;11167;46.988;15.470;2022-11-06T07:42:15;3.15;;;2.33;;
22005;SDS011;11167;46.988;15.470;2022-11-06T07:44:16;3.77;;;2.40;;
22005;SDS011;11167;46.988;15.470;2022-11-06T07:46:17;2.72;;;2.25;;
22005;SDS011;11167;46.988;15.470;2022-11-06T07:48:18;2.80;;;2.22;;
22005;SDS011;11167;46.988;15.470;2022-11-06T07:50:19;2.87;;;2.33;;
22005;SDS011;11167;46.988;15.470;2022-11-06T07:52:21;3.22;;;2.30;;
22005;SDS011;11167;46.988;15.470;2022-11-06T07:54:22;5.58;;;2.50;;
22005;SDS011;11167;46.988;15.470;2022-11-06T07:56:23;2.83;;;2.15;;
22005;SDS011;11167;46.988;15.470;2022-11-06T07:58:24;2.12;;;1.87;;
22005;SDS011;11167;46.988;15.470;2022-11-06T08:00:26;3.02;;;2.33;;
22005;SDS011;11167;46.988;15.470;2022-11-06T08:02:27;3.35;;;2.55;;
22005;SDS011;11167;46.988;15.470;2022-11-06T08:04:28;3.72;;;2.47;;
22005;SDS011;11167;46.988;15.470;2022-11-06T08:06:31;2.87;;;2.10;;
22005;SDS011;11167;46.988;15.470;2022-11-06T08:08:32;2.75;;;2.12;;
22005;SDS011;11167;46.988;15.470;2022-11-06T08:10:33;3.10;;;2.35;;
22005;SDS011;11167;46.988;15.470;2022-11-06T08:12:36;2.90;;;2.47;;
22005;SDS011;11167;46.988;15.470;2022-11-06T08:14:37;3.33;;;2.60;;
22005;SDS011;11167;46.988;15.470;2022-11-06T08:16:38;2.70;;;2.22;;
22005;SDS011;11167;46.988;15.470;2022-11-06T08:18:40;4.15;;;2.70;;
22005;SDS011;11167;46.988;15.470;2022-11-06T08:20:41;3.72;;;3.08;;
22005;SDS011;11167;46.988;15.470;2022-11-06T08:22:42;3.12;;;2.42;;
22005;SDS011;11167;46.988;15.470;2022-11-06T08:24:43;2.52;;;2.20;;
22005;SDS011;11167;46.988;15.470;2022-11-06T08:26:45;4.05;;;2.55;;
22005;SDS011;11167;46.988;15.470;2022-11-06T08:28:46;2.75;;;2.25;;
22005;SDS011;11167;46.988;15.470;2022-11-06T08:30:47;2.98;;;2.37;;
22005;SDS011;11167;46.988;15.470;2022-11-06T08:32:48;3.37;;;2.42;;
22005;SDS011;11167;46.988;15.470;2022-11-06T08:34:50;2.67;;;2.22;;
22005;SDS011;11167;46.988;15.470;2022-11-06T08:36:51;2.95;;;2.50;;
22005;SDS011;11167;46.988;15.470;2022-11-06T08:38:53;3.33;;;2.60;;
22005;SDS011;11167;46.988;15.470;2022-11-06T08:40:55;3.20;;;2.45;;
22005;SDS011;11167;46.988;15.470;2022-11-06T08:43:00;3.90;;;2.25;;
22005;SDS011;11167;46.988;15.470;2022-11-06T08:45:03;3.08;;;2.20;;
22005;SDS011;11167;46.988;15.470;2022-11-06T08:47:05;2.87;;;2.22;;
22005;SDS011;11167;46.988;15.470;2022-11-06T08:49:06;2.83;;;2.37;;
22005;SDS011;11167;46.988;15.470;2022-11-06T08:51:07;2.85;;;2.17;;
22005;SDS011;11167;46.988;15.470;2022-11-06T08:53:09;3.50;;;2.22;;
22005;SDS011;11167;46.988;15.470;2022-11-06T08:55:10;2.58;;;2.20;;
22005;SDS011;11167;46.988;15.470;2022-11-06T08:57:11;2.87;;;2.42;;
22005;SDS011;11167;46.988;15.470;2022-11-06T08:59:12;3.00;;;2.25;;
22005;SDS011;11167;46.988;15.470;2022-11-06T09:01:14;2.83;;;2.40;;
22005;SDS011;11167;46.988;15.470;2022-11-06T09:03:15;2.92;;;2.20;;
22005;SDS011;11167;46.988;15.470;2022-11-06T09:05:17;3.02;;;2.10;;
22005;SDS011;11167;46.988;15.470;2022-11-06T09:07:18;3.02;;;2.30;;
22005;SDS011;11167;46.988;15.470;2022-11-06T09:09:19;2.58;;;1.98;;
22005;SDS011;11167;46.988;15.470;2022-11-06T09:11:21;2.50;;;2.20;;
22005;SDS011;11167;46.988;15.470;2022-11-06T09:13:22;2.45;;;2.20;;
22005;SDS011;11167;46.988;15.470;2022-11-06T09:15:23;2.75;;;2.27;;
22005;SDS011;11167;46.988;15.470;2022-11-06T09:17:26;2.83;;;2.40;;
22005;SDS011;11167;46.988;15.470;2022-11-06T09:19:27;2.80;;;2.25;;
22005;SDS011;11167;46.988;15.470;2022-11-06T09:21:29;3.87;;;2.17;;
22005;SDS011;11167;46.988;15.470;2022-11-06T09:23:30;2.30;;;2.10;;
22005;SDS011;11167;46.988;15.470;2022-11-06T09:25:31;2.30;;;2.10;;
22005;SDS011;11167;46.988;15.470;2022-11-06T09:27:32;3.15;;;2.00;;
22005;SDS011;11167;46.988;15.470;2022-11-06T09:29:42;2.40;;;2.05;;
22005;SDS011;11167;46.988;15.470;2022-11-06T09:31:44;1.90;;;1.72;;
22005;SDS011;11167;46.988;15.470;2022-11-06T09:33:45;3.02;;;2.10;;
22005;SDS011;11167;46.988;15.470;2022-11-06T09:35:46;2.70;;;2.00;;
22005;SDS011;11167;46.988;15.470;2022-11-06T09:37:47;3.50;;;2.30;;
22005;SDS011;11167;46.988;15.470;2022-11-06T09:39:49;3.77;;;2.20;;
22005;SDS011;11167;46.988;15.470;2022-11-06T09:41:52;3.02;;;2.60;;
22005;SDS011;11167;46.988;15.470;2022-11-06T09:46:17;2.37;;;2.17;;
22005;SDS011;11167;46.988;15.470;2022-11-06T09:50:29;3.77;;;2.52;;
22005;SDS011;11167;46.988;15.470;2022-11-06T09:52:43;4.15;;;2.27;;
22005;SDS011;11167;46.988;15.470;2022-11-06T09:54:51;3.87;;;2.60;;
22005;SDS011;11167;46.988;15.470;2022-11-06T09:56:54;3.15;;;2.60;;
22005;SDS011;11167;46.988;15.470;2022-11-06T09:58:59;2.75;;;2.20;;
22005;SDS011;11167;46.988;15.470;2022-11-06T10:01:05;3.05;;;2.33;;
22005;SDS011;11167;46.988;15.470;2022-11-06T10:03:12;3.25;;;2.30;;
22005;SDS011;11167;46.988;15.470;2022-11-06T10:05:31;2.20;;;2.00;;
22005;SDS011;11167;46.988;15.470;2022-11-06T10:07:36;2.58;;;2.15;;
22005;SDS011;11167;46.988;15.470;2022-11-06T10:09:39;2.30;;;2.00;;
22005;SDS011;11167;46.988;15.470;2022-11-06T10:18:30;2.22;;;2.02;;
22005;SDS011;11167;46.988;15.470;2022-11-06T10:20:51;2.80;;;1.95;;
22005;SDS011;11167;46.988;15.470;2022-11-06T10:22:53;2.80;;;1.80;;
22005;SDS011;11167;46.988;15.470;2022-11-06T10:25:18;2.35;;;1.70;;
22005;SDS011;11167;46.988;15.470;2022-11-06T10:27:17;2.75;;;2.00;;
22005;SDS011;11167;46.988;15.470;2022-11-06T10:38:17;1.90;;;1.60;;
22005;SDS011;11167;46.988;15.470;2022-11-06T10:40:26;2.20;;;1.72;;
22005;SDS011;11167;46.988;15.470;2022-11-06T10:42:30;2.17;;;1.67;;
22005;SDS011;11167;46.988;15.470;2022-11-06T10:46:41;1.90;;;1.60;;
22005;SDS011;11167;46.988;15.470;2022-11-06T10:50:55;1.95;;;1.62;;
22005;SDS011;11167;46.988;15.470;2022-11-06T10:53:15;1.82;;;1.50;;
22005;SDS011;11167;46.988;15.470;2022-11-06T10:57:51;2.17;;;1.67;;
22005;SDS011;11167;46.988;15.470;2022-11-06T11:00:01;2.00;;;1.55;;
22005;SDS011;11167;46.988;15.470;2022-11-06T11:02:07;1.80;;;1.60;;
22005;SDS011;11167;46.988;15.470;2022-11-06T11:04:23;1.85;;;1.50;;
22005;SDS011;11167;46.988;15.470;2022-11-06T11:06:25;1.52;;;1.40;;
22005;SDS011;11167;46.988;15.470;2022-11-06T11:10:37;2.27;;;1.57;;
22005;SDS011;11167;46.988;15.470;2022-11-06T11:12:38;1.67;;;1.50;;
22005;SDS011;11167;46.988;15.470;2022-11-06T11:14:39;1.55;;;1.25;;
22005;SDS011;11167;46.988;15.470;2022-11-06T11:16:41;2.00;;;1.40;;
22005;SDS011;11167;46.988;15.470;2022-11-06T11:18:45;1.75;;;1.40;;
22005;SDS011;11167;46.988;15.470;2022-11-06T11:20:51;1.92;;;1.40;;
22005;SDS011;11167;46.988;15.470;2022-11-06T11:24:57;1.95;;;1.40;;
22005;SDS011;11167;46.988;15.470;2022-11-06T11:27:03;1.30;;;1.20;;
22005;SDS011;11167;46.988;15.470;2022-11-06T11:29:13;1.20;;;1.10;;
22005;SDS011;11167;46.988;15.470;2022-11-06T11:31:17;1.42;;;1.30;;
22005;SDS011;11167;46.988;15.470;2022-11-06T11:33:20;2.02;;;1.45;;
22005;SDS011;11167;46.988;15.470;2022-11-06T11:35:25;2.72;;;1.10;;
22005;SDS011;11167;46.988;15.470;2022-11-06T11:37:31;1.10;;;1.00;;
22005;SDS011;11167;46.988;15.470;2022-11-06T11:39:34;1.57;;;1.32;;
22005;SDS011;11167;46.988;15.470;2022-11-06T11:41:40;1.62;;;1.35;;
22005;SDS011;11167;46.988;15.470;2022-11-06T11:43:42;1.82;;;1.30;;
22005;SDS011;11167;46.988;15.470;2022-11-06T11:45:43;1.27;;;1.07;;
22005;SDS011;11167;46.988;15.470;2022-11-06T11:47:45;1.60;;;1.30;;
22005;SDS011;11167;46.988;15.470;2022-11-06T11:49:49;1.35;;;1.10;;
22005;SDS011;11167;46.988;15.470;2022-11-06T11:51:50;1.60;;;1.20;;
22005;SDS011;11167;46.988;15.470;2022-11-06T11:53:52;1.10;;;1.00;;
22005;SDS011;11167;46.988;15.470;2022-11-06T11:55:56;1.20;;;0.95;;
22005;SDS011;11167;46.988;15.470;2022-11-06T11:57:58;1.70;;;1.15;;
22005;SDS011;11167;46.988;15.470;2022-11-06T12:00:01;1.35;;;1.20;;
22005;SDS011;11167;46.988;15.470;2022-11-06T12:02:13;1.50;;;1.10;;
22005;SDS011;11167;46.988;15.470;2022-11-06T12:06:21;1.25;;;1.15;;
22005;SDS011;11167;46.988;15.470;2022-11-06T12:08:23;1.27;;;1.17;;
22005;SDS011;11167;46.988;15.470;2022-11-06T12:12:36;1.40;;;1.30;;
22005;SDS011;11167;46.988;15.470;2022-11-06T12:14:37;1.40;;;1.12;;
22005;SDS011;11167;46.988;15.470;2022-11-06T12:16:39;1.42;;;1.15;;
22005;SDS011;11167;46.988;15.470;2022-11-06T12:18:45;1.45;;;1.20;;
22005;SDS011;11167;46.988;15.470;2022-11-06T12:22:56;1.82;;;1.15;;
22005;SDS011;11167;46.988;15.470;2022-11-06T12:27:25;1.50;;;1.10;;
22005;SDS011;11167;46.988;15.470;2022-11-06T12:31:37;1.52;;;1.07;;
22005;SDS011;11167;46.988;15.470;2022-11-06T12:33:43;1.82;;;1.17;;
22005;SDS011;11167;46.988;15.470;2022-11-06T12:36:09;1.55;;;1.25;;
22005;SDS011;11167;46.988;15.470;2022-11-06T12:38:04;1.17;;;1.07;;
22005;SDS011;11167;46.988;15.470;2022-11-06T12:42:17;2.10;;;1.22;;
22005;SDS011;11167;46.988;15.470;2022-11-06T12:44:21;1.10;;;1.00;;
22005;SDS011;11167;46.988;15.470;2022-11-06T12:55:54;1.50;;;1.30;;
22005;SDS011;11167;46.988;15.470;2022-11-06T13:00:40;1.25;;;1.02;;
22005;SDS011;11167;46.988;15.470;2022-11-06T13:16:39;1.65;;;1.00;;
22005;SDS011;11167;46.988;15.470;2022-11-06T13:23:34;1.80;;;1.60;;
22005;SDS011;11167;46.988;15.470;2022-11-06T13:27:55;2.00;;;1.77;;
22005;SDS011;11167;46.988;15.470;2022-11-06T13:30:03;2.35;;;1.75;;
22005;SDS011;11167;46.988;15.470;2022-11-06T13:32:11;1.90;;;1.52;;
22005;SDS011;11167;46.988;15.470;2022-11-06T13:34:16;1.95;;;1.47;;
22005;SDS011;11167;46.988;15.470;2022-11-06T13:36:19;1.72;;;1.62;;
22005;SDS011;11167;46.988;15.470;2022-11-06T13:38:22;1.92;;;1.60;;
22005;SDS011;11167;46.988;15.470;2022-11-06T13:40:30;1.80;;;1.35;;
22005;SDS011;11167;46.988;15.470;2022-11-06T13:42:39;1.67;;;1.42;;
22005;SDS011;11167;46.988;15.470;2022-11-06T13:44:42;1.40;;;1.30;;
22005;SDS011;11167;46.988;15.470;2022-11-06T13:49:21;1.47;;;1.20;;
22005;SDS011;11167;46.988;15.470;2022-11-06T13:58:45;1.75;;;1.20;;
22005;SDS011;11167;46.988;15.470;2022-11-06T14:07:50;1.77;;;1.10;;
22005;SDS011;11167;46.988;15.470;2022-11-06T14:09:53;1.10;;;1.00;;
22005;SDS011;11167;46.988;15.470;2022-11-06T14:11:59;1.30;;;1.10;;
22005;SDS011;11167;46.988;15.470;2022-11-06T14:14:03;1.20;;;1.00;;
22005;SDS011;11167;46.988;15.470;2022-11-06T14:18:20;1.55;;;1.20;;
22005;SDS011;11167;46.988;15.470;2022-11-06T14:20:27;1.20;;;1.10;;
22005;SDS011;11167;46.988;15.470;2022-11-06T14:22:35;1.02;;;0.93;;
22005;SDS011;11167;46.988;15.470;2022-11-06T14:24:38;1.00;;;0.90;;
22005;SDS011;11167;46.988;15.470;2022-11-06T14:26:45;1.17;;;1.07;;
22005;SDS011;11167;46.988;15.470;2022-11-06T14:28:46;1.05;;;1.00;;